Bible College, Minnesota
Current Conditions -  °F | °C
As of 2:53 AM on Thursday 23 Oct 2014 (Local Time) from KFCM Reporting Station
Light Rain Light Rain  
Wind Chill: 52°   Ceiling: 1500
Heat Index: 52°   Visibility: 4mi
Dew Point: 50°   Wind: 9mph
Humidity: 93%   Direction: 200°SSW
Pressure: 30"   Gusts: NA
Location:  44.9069°N, 93.7466°W
Report Text: KFCM 230753Z AUTO 20008KT 4SM -RA BR OVC015 11/10 A3000 RMK AO2 RAE0656B29 SLP160 P0003 T01110100
Loading
Personal Weather Stations






























Interactive Weather Map
Tropical Storm Tracking
New forecast layout! Learn more

10-Day Weather Forecast

Advertisements
Track Severe Weather on mobile